Time;durP1;ratioP1;P1;durP2;ratioP2;P2;SDS_P1;SDS_P2;PMS_P1;PMS_P2;Temp;Humidity;BMP_temperature;BMP_pressure;BME280_temperature;BME280_humidity;BME280_pressure;Samples;Min_cycle;Max_cycle;Signal;HPM_P1;HPM_P2
2021/05/06 00:31:16;;;;;;;88.82;80.68;;;20.10;99.90;;;;;;4974594;28;20602;-64
2021/05/06 00:33:41;;;;;;;89.05;80.38;;;20.30;99.90;;;;;;4974379;28;20505;-64
2021/05/06 00:36:08;;;;;;;87.75;79.40;;;20.60;99.90;;;;;;4973196;28;20027;-66
2021/05/06 00:38:58;;;;;;;85.20;77.53;;;21.00;99.90;;;;;;4974436;28;20027;-63
2021/05/06 00:44:14;;;;;;;87.75;79.68;;;20.90;99.90;;;;;;4974788;28;20027;-64
2021/05/06 00:55:06;;;;;;;80.57;73.47;;;21.00;99.90;;;;;;4973441;28;20041;-62
2021/05/06 01:02:54;;;;;;;74.15;67.30;;;21.30;99.90;;;;;;4973953;28;20031;-61
2021/05/06 01:05:35;;;;;;;80.07;72.85;;;21.30;99.90;;;;;;4975570;28;20151;-62
2021/05/06 01:08:08;;;;;;;76.95;69.63;;;21.10;99.90;;;;;;4977772;28;20023;-62
2021/05/06 01:10:52;;;;;;;77.88;70.63;;;21.00;99.90;;;;;;4977936;28;20077;-63
2021/05/06 01:13:25;;;;;;;70.85;64.32;;;20.90;99.90;;;;;;4977657;28;20386;-63
2021/05/06 01:15:52;;;;;;;74.90;67.68;;;20.80;99.90;;;;;;4976449;28;20117;-63
2021/05/06 01:18:21;;;;;;;76.47;69.65;;;20.60;99.90;;;;;;4977417;28;20026;-63
2021/05/06 01:20:53;;;;;;;76.32;68.95;;;20.60;99.90;;;;;;4977390;28;20034;-63
2021/05/06 01:23:22;;;;;;;80.22;72.45;;;20.50;99.90;;;;;;4977373;28;20514;-62
2021/05/06 01:25:54;;;;;;;77.30;69.78;;;20.40;99.90;;;;;;4977324;28;20034;-61
2021/05/06 01:28:27;;;;;;;78.07;70.75;;;20.50;99.90;;;;;;4977605;28;20015;-62
2021/05/06 01:31:19;;;;;;;81.07;72.97;;;20.30;99.90;;;;;;4977312;28;20026;-63
2021/05/06 01:36:19;;;;;;;79.20;71.72;;;20.40;99.90;;;;;;4977266;28;20026;-63
2021/05/06 01:58:50;;;;;;;83.30;75.05;;;20.30;99.90;;;;;;4976505;28;20522;-60
2021/05/06 02:01:17;;;;;;;88.85;80.32;;;20.20;99.90;;;;;;4976463;28;20033;-58
2021/05/06 02:03:45;;;;;;;84.63;76.38;;;20.20;99.90;;;;;;4976165;28;20583;-59
2021/05/06 02:06:12;;;;;;;88.85;80.28;;;20.10;99.90;;;;;;4976338;28;20025;-64
2021/05/06 02:09:35;;;;;;;87.60;78.35;;;20.10;99.90;;;;;;4976473;28;20428;-63
2021/05/06 02:12:39;;;;;;;88.05;79.53;;;20.20;99.90;;;;;;4976302;28;20023;-63
2021/05/06 02:21:35;;;;;;;80.53;72.15;;;20.90;99.90;;;;;;4935672;29;20086;-64
2021/05/06 02:24:02;;;;;;;78.82;70.70;;;20.80;99.90;;;;;;4975865;28;20035;-65
2021/05/06 02:26:36;;;;;;;78.15;70.13;;;20.80;99.90;;;;;;4976033;28;20422;-65
2021/05/06 02:29:07;;;;;;;78.97;70.75;;;20.60;99.90;;;;;;4976018;28;20050;-65
2021/05/06 02:31:34;;;;;;;;;;;20.60;99.90;;;;;;4976428;28;20081;-65
2021/05/06 02:34:03;;;;;;;79.60;69.80;;;20.80;99.90;;;;;;4975982;28;19906;-65
2021/05/06 02:36:30;;;;;;;78.70;70.50;;;21.00;99.90;;;;;;4975959;28;20023;-64
2021/05/06 02:39:07;;;;;;;75.40;67.28;;;21.10;99.90;;;;;;4975932;28;20483;-65
2021/05/06 02:41:35;;;;;;;74.72;67.05;;;21.30;99.90;;;;;;4975798;28;20027;-65
2021/05/06 02:44:02;;;;;;;80.45;72.05;;;21.50;99.90;;;;;;4975829;28;20066;-66
2021/05/06 02:46:29;;;;;;;78.88;70.93;;;21.70;99.90;;;;;;4975645;28;20061;-66
2021/05/06 02:48:57;;;;;;;81.57;73.97;;;21.80;99.90;;;;;;4975706;28;20027;-66
2021/05/06 02:51:30;;;;;;;81.88;74.20;;;21.80;99.90;;;;;;4975533;28;20019;-65
2021/05/06 02:53:58;;;;;;;82.90;75.18;;;21.70;99.90;;;;;;4975542;28;20113;-65
2021/05/06 02:56:35;;;;;;;81.95;74.82;;;21.60;99.90;;;;;;4975528;28;20394;-64
2021/05/06 02:59:17;;;;;;;79.72;72.13;;;21.50;99.90;;;;;;4975399;28;20031;-64
2021/05/06 03:04:29;;;;;;;80.18;73.05;;;21.50;99.90;;;;;;4975156;28;20058;-66
2021/05/06 03:07:05;;;;;;;78.32;71.40;;;21.40;99.90;;;;;;4975305;28;20404;-65
2021/05/06 03:12:46;;;;;;;81.03;74.07;;;20.90;99.90;;;;;;4975346;28;20027;-65
2021/05/06 03:22:43;;;;;;;78.32;72.10;;;21.20;99.90;;;;;;4975165;28;20027;-64
2021/05/06 03:25:12;;;;;;;78.97;72.75;;;21.10;99.90;;;;;;4975259;28;20026;-64
2021/05/06 03:36:24;;;;;;;77.47;71.15;;;21.20;99.90;;;;;;4974887;28;20093;-64
2021/05/06 03:44:48;;;;;;;76.93;70.63;;;21.20;99.90;;;;;;4934023;29;20027;-64
2021/05/06 04:12:05;;;;;;;79.93;73.65;;;20.60;99.90;;;;;;4974048;28;20061;-65
2021/05/06 04:16:59;;;;;;;81.03;74.00;;;20.30;99.90;;;;;;4974330;28;20514;-65
2021/05/06 04:27:26;;;;;;;81.88;74.80;;;20.70;99.90;;;;;;4974112;28;20212;-66
2021/05/06 04:38:02;;;;;;;80.10;73.15;;;21.30;99.90;;;;;;4974177;28;20097;-63
2021/05/06 04:43:48;;;;;;;82.80;75.35;;;21.10;99.90;;;;;;4978278;28;20109;-65
2021/05/06 05:04:48;;;;;;;78.80;71.20;;;21.60;99.90;;;;;;4977303;28;20545;-65
2021/05/06 05:07:20;;;;;;;78.75;71.22;;;21.60;99.90;;;;;;4976546;28;20109;-64
2021/05/06 05:10:22;;;;;;;75.93;68.28;;;21.80;99.90;;;;;;4977536;28;20073;-63
2021/05/06 05:13:14;;;;;;;76.47;69.15;;;21.90;99.90;;;;;;4977807;28;20027;-63
2021/05/06 05:24:02;;;;;;;78.72;72.15;;;21.50;99.90;;;;;;4977508;28;20090;-63
2021/05/06 05:26:30;;;;;;;79.50;72.40;;;21.60;99.90;;;;;;4977046;28;20035;-67
2021/05/06 05:28:57;;;;;;;77.75;70.43;;;21.50;99.90;;;;;;4977221;28;20045;-65
2021/05/06 05:31:28;;;;;;;79.43;71.72;;;21.60;99.90;;;;;;4977134;28;20093;-63
2021/05/06 05:34:37;;;;;;;79.22;71.95;;;21.50;99.90;;;;;;4977096;28;20082;-63
2021/05/06 05:37:04;;;;;;;78.22;71.07;;;21.50;99.90;;;;;;4977044;28;20031;-64
2021/05/06 05:39:56;;;;;;;80.90;73.07;;;21.40;99.90;;;;;;4975789;28;20034;-64
2021/05/06 05:42:38;;;;;;;79.55;72.68;;;21.40;99.90;;;;;;4976822;28;20039;-64
2021/05/06 05:56:03;;;;;;;79.80;72.32;;;21.20;99.90;;;;;;4976798;28;20042;-63
2021/05/06 05:58:30;;;;;;;77.47;70.13;;;21.10;99.90;;;;;;4976733;28;20089;-63
2021/05/06 06:00:58;;;;;;;75.45;67.72;;;21.00;99.90;;;;;;4976612;28;20031;-64
2021/05/06 06:03:25;;;;;;;75.05;68.20;;;21.00;99.90;;;;;;4976412;28;20054;-64
2021/05/06 06:05:53;;;;;;;74.65;67.80;;;21.00;99.90;;;;;;4976656;28;20442;-64
2021/05/06 06:08:25;;;;;;;74.30;66.95;;;20.80;99.90;;;;;;4976772;28;20431;-64
2021/05/06 06:10:52;;;;;;;73.93;66.55;;;20.80;99.90;;;;;;4976326;28;20022;-64
2021/05/06 06:13:20;;;;;;;76.05;67.88;;;20.70;99.90;;;;;;4976343;28;20033;-64
2021/05/06 06:15:58;;;;;;;82.10;74.45;;;20.60;99.90;;;;;;4976317;28;20376;-64
2021/05/06 06:18:41;;;;;;;81.78;73.75;;;20.50;99.90;;;;;;4976307;28;20454;-64
2021/05/06 06:21:18;;;;;;;79.05;71.25;;;20.40;99.90;;;;;;4976294;28;20030;-64
2021/05/06 06:23:46;;;;;;;78.15;70.35;;;20.30;99.90;;;;;;4976213;28;20022;-63
2021/05/06 06:26:13;;;;;;;78.10;70.20;;;20.30;99.90;;;;;;4976389;28;20038;-63
2021/05/06 06:28:46;;;;;;;74.40;67.13;;;20.20;99.90;;;;;;4976023;28;20023;-64
2021/05/06 06:31:18;;;;;;;74.38;67.28;;;20.10;99.90;;;;;;4976369;28;20046;-64
2021/05/06 06:33:52;;;;;;;73.40;66.13;;;20.10;99.90;;;;;;4976043;28;20425;-64
2021/05/06 06:36:19;;;;;;;74.07;67.30;;;20.10;99.90;;;;;;4975848;28;20438;-64
2021/05/06 06:38:49;;;;;;;70.93;63.97;;;20.10;99.90;;;;;;4975938;28;20050;-64
2021/05/06 06:41:23;;;;;;;75.55;68.47;;;20.00;99.90;;;;;;4975834;28;20027;-63
2021/05/06 06:43:53;;;;;;;70.53;63.78;;;20.00;99.90;;;;;;4975742;28;20038;-63
2021/05/06 06:46:23;;;;;;;74.10;67.27;;;19.90;99.90;;;;;;4975416;28;20121;-62
2021/05/06 06:55:17;;;;;;;68.95;62.45;;;19.90;99.90;;;;;;4935425;28;20042;-64
2021/05/06 06:57:44;;;;;;;68.97;62.42;;;19.80;99.90;;;;;;4975567;28;20105;-61
2021/05/06 07:00:12;;;;;;;69.22;62.38;;;19.80;99.90;;;;;;4975579;28;20125;-62
2021/05/06 07:02:40;;;;;;;71.15;64.60;;;19.70;99.90;;;;;;4974439;28;20045;-62
2021/05/06 07:05:09;;;;;;;72.28;65.75;;;19.60;99.90;;;;;;4974031;28;20137;-58
2021/05/06 07:07:36;;;;;;;67.70;61.50;;;19.60;99.90;;;;;;4975302;28;20179;-58
2021/05/06 07:10:04;;;;;;;71.95;65.68;;;19.60;99.90;;;;;;4975289;28;20101;-58
2021/05/06 07:12:31;;;;;;;74.03;67.55;;;19.60;99.90;;;;;;4973887;28;20030;-57
2021/05/06 07:14:59;;;;;;;74.15;67.57;;;19.60;99.90;;;;;;4975131;28;20023;-56
2021/05/06 07:17:26;;;;;;;76.07;69.38;;;19.60;99.90;;;;;;4973803;28;20023;-58
2021/05/06 07:19:53;;;;;;;73.65;66.55;;;19.60;99.90;;;;;;4975123;28;20026;-56
2021/05/06 07:22:21;;;;;;;71.50;64.20;;;19.60;99.90;;;;;;4974876;28;20027;-54
2021/05/06 07:24:48;;;;;;;72.25;65.28;;;19.60;99.90;;;;;;4974635;28;20435;-52
2021/05/06 07:27:15;;;;;;;73.80;66.32;;;19.60;99.90;;;;;;4974703;28;20027;-52
2021/05/06 07:29:43;;;;;;;73.10;66.25;;;19.60;99.90;;;;;;4974695;28;20106;-50
2021/05/06 07:32:10;;;;;;;77.60;70.10;;;19.50;99.90;;;;;;4974671;28;20057;-49
2021/05/06 07:34:38;;;;;;;76.95;69.63;;;19.40;99.90;;;;;;4974565;28;20435;-53
2021/05/06 07:37:05;;;;;;;80.00;72.22;;;19.40;99.90;;;;;;4974521;28;20381;-50
2021/05/06 07:39:32;;;;;;;82.07;74.72;;;19.30;99.90;;;;;;4974438;28;20019;-53
2021/05/06 07:42:00;;;;;;;83.15;75.28;;;19.30;99.90;;;;;;4974531;28;20081;-47
2021/05/06 07:44:27;;;;;;;75.38;68.38;;;19.30;99.90;;;;;;4974708;28;20442;-52
2021/05/06 07:47:08;;;;;;;81.10;73.30;;;19.30;99.90;;;;;;4974313;28;20023;-48
2021/05/06 07:49:36;;;;;;;84.30;75.47;;;19.30;99.90;;;;;;4974362;28;20022;-46
2021/05/06 07:52:05;;;;;;;80.70;73.07;;;19.30;99.90;;;;;;4974306;28;20015;-48
2021/05/06 07:54:32;;;;;;;79.63;71.93;;;19.20;99.90;;;;;;4974414;28;20027;-53
2021/05/06 07:57:00;;;;;;;85.38;76.72;;;19.20;99.90;;;;;;4973033;28;20412;-53
2021/05/06 07:59:28;;;;;;;79.25;71.38;;;19.20;99.90;;;;;;4974227;28;20039;-53
2021/05/06 08:01:55;;;;;;;82.65;74.20;;;19.20;99.90;;;;;;4974233;28;20034;-55
2021/05/06 08:04:22;;;;;;;82.82;74.55;;;19.20;99.90;;;;;;4973923;28;20055;-54
2021/05/06 08:06:50;;;;;;;82.07;73.97;;;19.20;99.90;;;;;;4974151;28;20026;-49
2021/05/06 08:09:17;;;;;;;79.07;71.68;;;19.20;99.90;;;;;;4974093;28;20031;-54
2021/05/06 08:11:45;;;;;;;75.43;68.05;;;19.20;99.90;;;;;;4973982;28;20479;-54
2021/05/06 08:14:12;;;;;;;76.15;68.47;;;19.20;99.90;;;;;;4973732;28;20126;-54
2021/05/06 08:16:39;;;;;;;74.68;67.47;;;19.10;99.90;;;;;;4972615;28;20030;-55
2021/05/06 08:19:07;;;;;;;73.45;66.20;;;19.10;99.90;;;;;;4974008;28;20440;-49
2021/05/06 08:21:34;;;;;;;74.03;66.28;;;19.10;99.90;;;;;;4973709;28;20022;-55
2021/05/06 08:24:01;;;;;;;70.82;63.08;;;19.10;99.90;;;;;;4972558;28;20054;-54
2021/05/06 08:26:28;;;;;;;76.15;67.82;;;19.10;99.90;;;;;;4973772;28;20501;-54
2021/05/06 08:28:56;;;;;;;79.57;70.95;;;19.10;99.90;;;;;;4972536;28;20023;-55
2021/05/06 08:31:23;;;;;;;78.50;69.93;;;19.10;99.90;;;;;;4973826;28;20107;-53
2021/05/06 08:33:51;;;;;;;82.68;74.30;;;19.20;99.90;;;;;;4973862;28;20033;-49
2021/05/06 08:36:18;;;;;;;81.40;73.05;;;19.20;99.90;;;;;;4973556;28;20022;-50
2021/05/06 08:38:46;;;;;;;83.00;74.55;;;19.20;99.90;;;;;;4973782;28;20391;-50
2021/05/06 08:41:14;;;;;;;80.00;71.97;;;19.10;99.90;;;;;;4973642;28;20026;-49
2021/05/06 08:43:45;;;;;;;80.78;72.32;;;19.10;99.90;;;;;;4973643;28;20042;-50
2021/05/06 08:46:13;;;;;;;80.00;71.60;;;19.10;99.90;;;;;;4973508;28;20035;-52
2021/05/06 08:48:41;;;;;;;77.20;69.35;;;19.10;99.90;;;;;;4973631;28;20395;-50
2021/05/06 08:51:09;;;;;;;78.90;70.15;;;19.10;99.90;;;;;;4973509;28;20026;-52
2021/05/06 08:53:37;;;;;;;82.65;70.97;;;19.10;99.90;;;;;;4973533;28;20030;-53
2021/05/06 08:56:05;;;;;;;81.80;71.95;;;19.00;99.90;;;;;;4973561;28;20411;-54
2021/05/06 08:58:32;;;;;;;78.45;70.28;;;19.00;99.90;;;;;;4973572;28;20081;-53
2021/05/06 09:01:00;;;;;;;84.68;72.65;;;18.90;99.90;;;;;;4973657;28;20035;-53
2021/05/06 09:03:27;;;;;;;82.85;69.72;;;18.90;99.90;;;;;;4973222;28;20479;-53
2021/05/06 09:06:23;;;;;;;82.32;74.15;;;18.80;99.90;;;;;;4973568;28;20030;-50
2021/05/06 09:09:04;;;;;;;85.15;76.22;;;18.80;99.90;;;;;;4965154;28;20039;-50
2021/05/06 09:11:37;;;;;;;79.72;71.32;;;18.80;99.90;;;;;;4973641;28;20110;-57
2021/05/06 09:14:10;;;;;;;79.65;71.07;;;18.80;99.90;;;;;;4973547;28;20120;-58
2021/05/06 09:16:42;;;;;;;81.20;72.32;;;18.90;99.90;;;;;;4973457;28;20030;-55
2021/05/06 09:19:12;;;;;;;84.28;75.57;;;18.90;99.90;;;;;;4972235;28;20487;-57
2021/05/06 09:21:43;;;;;;;83.50;75.17;;;18.80;99.90;;;;;;4973417;28;20115;-57
2021/05/06 09:24:10;;;;;;;;;;;18.80;99.90;;;;;;4973911;28;20027;-53
2021/05/06 09:26:39;;;;;;;87.75;78.32;;;18.90;99.90;;;;;;4974127;28;19921;-55
2021/05/06 09:29:12;;;;;;;87.38;77.65;;;18.90;99.90;;;;;;4977351;28;20030;-59
2021/05/06 09:31:42;;;;;;;78.32;70.40;;;18.80;99.90;;;;;;4977234;28;20031;-62
2021/05/06 09:34:12;;;;;;;91.97;82.57;;;18.70;99.90;;;;;;4977029;28;20076;-59
2021/05/06 09:36:44;;;;;;;83.10;73.88;;;18.60;99.90;;;;;;4976941;28;20415;-57
2021/05/06 09:39:11;;;;;;;80.78;71.80;;;18.70;99.90;;;;;;4977120;28;20057;-60
2021/05/06 09:41:39;;;;;;;84.05;73.68;;;18.80;99.90;;;;;;4977028;28;20042;-60
2021/05/06 09:44:13;;;;;;;81.90;73.57;;;18.70;99.90;;;;;;4976982;28;20077;-59
2021/05/06 09:46:43;;;;;;;83.53;74.53;;;18.70;99.90;;;;;;4976820;28;20483;-59
2021/05/06 09:49:14;;;;;;;80.20;72.28;;;18.70;99.90;;;;;;4976822;28;20027;-62
2021/05/06 09:51:54;;;;;;;81.22;73.07;;;18.50;99.90;;;;;;4976905;28;20086;-60
2021/05/06 09:54:43;;;;;;;82.43;73.82;;;18.60;99.90;;;;;;4975623;28;20376;-59
2021/05/06 09:57:11;;;;;;;81.47;73.63;;;18.60;99.90;;;;;;4975638;28;20027;-59
2021/05/06 09:59:39;;;;;;;80.60;71.93;;;18.70;99.90;;;;;;4976629;28;20027;-60
2021/05/06 10:02:17;;;;;;;81.57;73.22;;;18.70;99.90;;;;;;4976500;28;20030;-56
2021/05/06 10:04:48;;;;;;;83.28;73.20;;;18.80;99.90;;;;;;4976316;28;20051;-59
2021/05/06 10:07:16;;;;;;;83.60;74.95;;;18.80;99.90;;;;;;4975264;28;20039;-58
2021/05/06 10:10:01;;;;;;;76.82;68.07;;;18.80;99.90;;;;;;4976602;28;20038;-60
2021/05/06 10:12:35;;;;;;;80.60;72.07;;;18.80;99.90;;;;;;4976416;28;20034;-58
2021/05/06 10:15:07;;;;;;;83.50;74.63;;;18.80;99.90;;;;;;4976527;28;20050;-60
2021/05/06 10:17:34;;;;;;;85.07;76.22;;;18.80;99.90;;;;;;4976460;28;20029;-59
2021/05/06 10:20:02;;;;;;;89.38;80.72;;;18.80;99.90;;;;;;4976288;28;20031;-57
2021/05/06 10:22:30;;;;;;;89.03;80.35;;;18.80;99.90;;;;;;4976121;28;20034;-59
2021/05/06 10:25:01;;;;;;;90.05;81.50;;;18.80;99.90;;;;;;4975916;28;20035;-59
2021/05/06 10:27:29;;;;;;;83.30;74.93;;;18.80;99.90;;;;;;4975816;28;20086;-59
2021/05/06 10:29:57;;;;;;;79.60;71.63;;;18.80;99.90;;;;;;4975974;28;20527;-60
2021/05/06 10:32:31;;;;;;;83.45;74.65;;;18.90;99.90;;;;;;4975922;28;20507;-56
2021/05/06 10:35:19;;;;;;;81.50;73.53;;;18.80;99.90;;;;;;4975961;28;20035;-57
2021/05/06 10:37:52;;;;;;;79.95;71.40;;;18.80;99.90;;;;;;4975782;28;20027;-58
2021/05/06 10:40:24;;;;;;;81.15;72.65;;;18.80;99.90;;;;;;4975737;28;20030;-58
2021/05/06 10:42:53;;;;;;;82.50;73.57;;;18.80;99.90;;;;;;4975799;28;20034;-59
2021/05/06 10:45:24;;;;;;;84.13;75.57;;;18.80;99.90;;;;;;4975654;28;20034;-59
2021/05/06 10:47:53;;;;;;;85.18;76.75;;;18.90;99.90;;;;;;4975536;28;20030;-60
2021/05/06 10:50:32;;;;;;;84.05;75.93;;;18.90;99.90;;;;;;4975492;28;20093;-56
2021/05/06 10:53:00;;;;;;;84.03;76.10;;;18.90;99.90;;;;;;4975415;28;20022;-59
2021/05/06 10:55:50;;;;;;;84.25;76.05;;;18.80;99.90;;;;;;4975377;28;20019;-59
2021/05/06 10:58:33;;;;;;;84.25;76.05;;;18.80;99.90;;;;;;4975772;28;20058;-60
2021/05/06 11:01:04;;;;;;;85.03;75.70;;;18.80;99.90;;;;;;4975423;28;20110;-57
2021/05/06 11:03:32;;;;;;;93.28;84.45;;;18.80;99.90;;;;;;4975111;28;20451;-59
2021/05/06 11:06:00;;;;;;;89.18;80.28;;;18.70;99.90;;;;;;4975261;28;20027;-59
2021/05/06 11:08:30;;;;;;;85.38;77.22;;;18.80;99.90;;;;;;4975280;28;20106;-57
2021/05/06 11:10:57;;;;;;;86.22;78.28;;;18.80;99.90;;;;;;4975093;28;20119;-58
2021/05/06 11:13:26;;;;;;;79.03;70.90;;;18.80;99.90;;;;;;4975130;28;20038;-60
2021/05/06 11:16:17;;;;;;;80.30;72.22;;;18.80;99.90;;;;;;4975033;28;20029;-58
2021/05/06 11:18:50;;;;;;;82.43;70.70;;;18.70;99.90;;;;;;4975060;28;20027;-57
2021/05/06 11:21:34;;;;;;;87.70;79.75;;;18.70;99.90;;;;;;4975040;28;20109;-58
2021/05/06 11:24:27;;;;;;;92.95;83.15;;;18.70;99.90;;;;;;4975013;28;20027;-60
2021/05/06 11:27:13;;;;;;;87.10;78.95;;;18.80;99.90;;;;;;4975187;28;20415;-54
2021/05/06 11:29:42;;;;;;;84.68;76.90;;;18.80;99.90;;;;;;4974842;28;20034;-57
2021/05/06 11:32:31;;;;;;;83.18;75.15;;;18.90;99.90;;;;;;4974868;28;20034;-57
2021/05/06 11:34:59;;;;;;;82.95;75.25;;;18.90;99.90;;;;;;4974939;28;20077;-58
2021/05/06 11:37:29;;;;;;;87.85;80.35;;;18.90;99.90;;;;;;4974811;28;20050;-56
2021/05/06 11:40:01;;;;;;;89.63;81.85;;;18.80;99.90;;;;;;4974698;28;20031;-57
2021/05/06 11:42:36;;;;;;;94.68;86.47;;;18.90;99.90;;;;;;4974967;28;20027;-58
2021/05/06 11:45:27;;;;;;;85.32;77.55;;;18.80;99.90;;;;;;4974550;28;20028;-59
2021/05/06 11:47:57;;;;;;;84.30;76.97;;;18.80;99.90;;;;;;4974629;28;20046;-60
2021/05/06 11:50:26;;;;;;;88.70;80.90;;;18.80;99.90;;;;;;4974309;28;20026;-59
2021/05/06 11:52:59;;;;;;;96.65;87.93;;;18.80;99.90;;;;;;4974575;28;20285;-58
2021/05/06 11:55:38;;;;;;;97.00;88.53;;;18.80;99.90;;;;;;4974604;28;20042;-58
2021/05/06 11:58:06;;;;;;;91.30;83.15;;;18.80;99.90;;;;;;4974629;28;20431;-58
2021/05/06 12:00:34;;;;;;;93.88;85.82;;;18.80;99.90;;;;;;4974473;28;20034;-55
2021/05/06 12:03:06;;;;;;;87.57;79.45;;;18.80;99.90;;;;;;4974142;28;20031;-54
2021/05/06 12:06:01;;;;;;;87.10;79.03;;;18.80;99.90;;;;;;4974242;28;20104;-57
2021/05/06 12:08:32;;;;;;;83.65;76.32;;;18.80;99.90;;;;;;4974334;28;20073;-54
2021/05/06 12:11:03;;;;;;;93.65;84.15;;;18.90;99.90;;;;;;4974286;28;20059;-56
2021/05/06 12:13:34;;;;;;;94.93;86.47;;;18.90;99.90;;;;;;4974289;28;20033;-56
2021/05/06 12:16:22;;;;;;;91.85;83.30;;;18.90;99.90;;;;;;4974282;28;20023;-57
2021/05/06 12:19:12;;;;;;;83.55;74.85;;;18.90;99.90;;;;;;4974133;28;20561;-55
2021/05/06 12:21:57;;;;;;;81.63;73.50;;;19.00;99.90;;;;;;4974272;28;20391;-56
2021/05/06 12:24:33;;;;;;;85.47;76.97;;;19.00;99.90;;;;;;4974060;28;20026;-56
2021/05/06 12:27:18;;;;;;;88.55;79.65;;;19.00;99.90;;;;;;4974074;28;20031;-58
2021/05/06 12:29:49;;;;;;;92.18;83.35;;;18.90;99.90;;;;;;4974153;28;20023;-57
2021/05/06 12:32:22;;;;;;;95.80;86.68;;;19.00;99.90;;;;;;4974361;28;20498;-56
2021/05/06 12:34:51;;;;;;;86.32;77.45;;;19.00;99.90;;;;;;4974046;28;20430;-59
2021/05/06 12:37:22;;;;;;;87.82;79.55;;;19.00;99.90;;;;;;4973972;28;20034;-58
2021/05/06 12:39:50;;;;;;;86.97;78.75;;;18.90;99.90;;;;;;4973994;28;20035;-57
2021/05/06 12:42:30;;;;;;;84.95;77.47;;;18.90;99.90;;;;;;4973895;28;20491;-56
2021/05/06 12:44:58;;;;;;;92.07;84.35;;;18.90;99.90;;;;;;4973911;28;20105;-53
2021/05/06 12:47:31;;;;;;;84.57;77.18;;;18.80;99.90;;;;;;4973929;28;20023;-58
2021/05/06 12:50:13;;;;;;;84.90;77.78;;;18.80;99.90;;;;;;4973943;28;20027;-55
2021/05/06 12:52:48;;;;;;;92.65;84.90;;;18.80;99.90;;;;;;4973866;28;20062;-60
2021/05/06 12:55:23;;;;;;;93.50;86.03;;;18.70;99.90;;;;;;4973903;28;20038;-58
2021/05/06 12:58:13;;;;;;;90.15;83.15;;;18.70;99.90;;;;;;4973866;28;20019;-54
2021/05/06 13:00:45;;;;;;;87.22;80.53;;;18.70;99.90;;;;;;4974472;28;20369;-59
2021/05/06 13:03:15;;;;;;;82.45;76.15;;;18.70;99.90;;;;;;4977433;28;20051;-55
2021/05/06 13:05:48;;;;;;;83.22;77.30;;;18.70;99.90;;;;;;4977725;28;20159;-58
2021/05/06 13:08:16;;;;;;;88.55;81.93;;;18.70;99.90;;;;;;4977673;28;20033;-60
2021/05/06 13:11:00;;;;;;;86.75;80.00;;;18.80;99.90;;;;;;4977458;28;20025;-59
2021/05/06 13:13:45;;;;;;;94.05;86.40;;;18.80;99.90;;;;;;4977557;28;20102;-59
2021/05/06 13:16:16;;;;;;;85.72;78.72;;;18.80;99.90;;;;;;4977453;28;20085;-57
2021/05/06 13:19:02;;;;;;;91.93;84.93;;;18.70;99.90;;;;;;4977456;28;20483;-58
2021/05/06 13:21:34;;;;;;;90.43;82.78;;;18.80;99.90;;;;;;4977301;28;20051;-58
2021/05/06 13:24:03;;;;;;;95.20;87.57;;;18.70;99.90;;;;;;4977383;28;20022;-57
2021/05/06 13:26:42;;;;;;;89.30;81.38;;;18.70;99.90;;;;;;4977240;28;20027;-58
2021/05/06 13:29:15;;;;;;;89.68;81.55;;;18.70;99.90;;;;;;4977452;28;20027;-59
2021/05/06 13:31:51;;;;;;;87.05;79.15;;;18.60;99.90;;;;;;4977343;28;20434;-58
2021/05/06 13:34:27;;;;;;;89.82;82.22;;;18.50;99.90;;;;;;4977214;28;20440;-55
2021/05/06 13:37:03;;;;;;;91.20;83.53;;;18.40;99.90;;;;;;4977627;28;20387;-56
2021/05/06 13:39:39;;;;;;;93.15;85.00;;;18.40;99.90;;;;;;4977089;28;20065;-60
2021/05/06 13:42:06;;;;;;;94.07;85.70;;;18.40;99.90;;;;;;4977195;28;20459;-59
2021/05/06 13:44:35;;;;;;;95.07;86.85;;;18.40;99.90;;;;;;4975824;28;20027;-58
2021/05/06 13:47:07;;;;;;;94.38;85.75;;;18.40;99.90;;;;;;4976736;28;20041;-56
2021/05/06 13:49:35;;;;;;;92.97;84.82;;;18.40;99.90;;;;;;4976964;28;20094;-60
2021/05/06 13:52:06;;;;;;;94.00;86.07;;;18.40;99.90;;;;;;4976739;28;20022;-59
2021/05/06 13:54:33;;;;;;;98.80;90.93;;;18.30;99.90;;;;;;4976761;28;20502;-58
2021/05/06 13:57:00;;;;;;;92.53;84.35;;;18.30;99.90;;;;;;4976668;28;20031;-56
2021/05/06 13:59:28;;;;;;;87.55;80.63;;;18.30;99.90;;;;;;4975289;28;20027;-61
2021/05/06 14:01:56;;;;;;;93.18;84.78;;;18.30;99.90;;;;;;4976521;28;20518;-58
2021/05/06 14:04:24;;;;;;;89.72;81.90;;;18.30;99.90;;;;;;4975028;28;20096;-59
2021/05/06 14:06:53;;;;;;;91.28;83.00;;;18.30;99.90;;;;;;4976443;28;20031;-58
2021/05/06 14:09:21;;;;;;;93.32;85.20;;;18.30;99.90;;;;;;4976420;28;20023;-58
2021/05/06 14:11:51;;;;;;;93.55;85.80;;;18.30;99.90;;;;;;4975961;28;20019;-55
2021/05/06 14:14:19;;;;;;;92.32;83.72;;;18.30;99.90;;;;;;4976345;28;20483;-59
2021/05/06 14:16:47;;;;;;;90.43;81.82;;;18.30;99.90;;;;;;4976293;28;20035;-58
2021/05/06 14:19:15;;;;;;;91.40;83.13;;;18.40;99.90;;;;;;4976264;28;20022;-56
2021/05/06 14:21:48;;;;;;;92.97;84.43;;;18.40;99.90;;;;;;4976209;28;20448;-58
2021/05/06 14:24:16;;;;;;;93.65;85.07;;;18.40;99.90;;;;;;4976158;28;20030;-59
2021/05/06 14:26:47;;;;;;;95.60;85.93;;;18.40;99.90;;;;;;4976060;28;20027;-58
2021/05/06 14:29:19;;;;;;;92.18;83.70;;;18.40;99.90;;;;;;4976104;28;20484;-58
2021/05/06 14:31:47;;;;;;;93.05;83.65;;;18.40;99.90;;;;;;4976034;28;20038;-57
2021/05/06 14:34:15;;;;;;;91.75;82.88;;;18.50;99.90;;;;;;4974804;28;20396;-59
2021/05/06 14:36:44;;;;;;;90.97;80.93;;;18.50;99.90;;;;;;4975956;28;20050;-58
2021/05/06 14:39:12;;;;;;;95.13;84.65;;;18.60;99.90;;;;;;4976009;28;20038;-59
2021/05/06 14:41:42;;;;;;;97.05;87.20;;;18.60;99.90;;;;;;4975820;28;20034;-58
2021/05/06 14:44:10;;;;;;;102.45;91.43;;;18.70;99.90;;;;;;4975783;28;20503;-60
2021/05/06 14:46:37;;;;;;;99.03;88.85;;;18.70;99.90;;;;;;4975645;28;20043;-62
2021/05/06 14:49:06;;;;;;;97.53;87.93;;;18.70;99.90;;;;;;4975701;28;20055;-58
2021/05/06 14:51:33;;;;;;;95.95;87.93;;;18.70;99.90;;;;;;4975958;28;20058;-59
2021/05/06 14:54:01;;;;;;;99.97;92.22;;;18.50;99.90;;;;;;4975650;28;20027;-57
2021/05/06 14:56:29;;;;;;;99.78;91.93;;;18.50;99.90;;;;;;4975599;28;20038;-60
2021/05/06 14:58:56;;;;;;;97.00;89.00;;;18.40;99.90;;;;;;4975555;28;20038;-59
2021/05/06 15:01:24;;;;;;;97.22;88.50;;;18.50;99.90;;;;;;4975537;28;20026;-57
2021/05/06 15:03:51;;;;;;;98.18;89.13;;;18.40;99.90;;;;;;4975236;28;20046;-58
2021/05/06 15:06:18;;;;;;;97.78;88.93;;;18.40;99.90;;;;;;4975388;28;20121;-58
2021/05/06 15:08:47;;;;;;;99.60;90.30;;;18.40;99.90;;;;;;4975372;28;20026;-60
2021/05/06 15:17:40;;;;;;;100.22;91.82;;;18.50;99.90;;;;;;4975543;28;20030;-59
2021/05/06 15:20:08;;;;;;;100.20;91.30;;;18.50;99.90;;;;;;4975147;28;20022;-55
2021/05/06 15:22:36;;;;;;;95.57;87.93;;;18.50;99.90;;;;;;4973778;28;20077;-59
2021/05/06 15:25:06;;;;;;;95.43;87.22;;;18.50;99.90;;;;;;4974223;28;20479;-58
2021/05/06 15:27:33;;;;;;;95.50;87.57;;;18.50;99.90;;;;;;4975082;28;20054;-59
2021/05/06 15:30:05;;;;;;;95.57;87.18;;;18.40;99.90;;;;;;4974867;28;20479;-58
2021/05/06 15:32:35;;;;;;;97.70;89.32;;;18.40;99.90;;;;;;4974927;28;20395;-59
2021/05/06 15:35:03;;;;;;;;;;;18.40;99.90;;;;;;4975281;28;20030;-59
2021/05/06 15:37:30;;;;;;;95.93;87.90;;;18.40;99.90;;;;;;4974750;28;19906;-58
2021/05/06 15:39:58;;;;;;;95.72;87.55;;;18.40;99.90;;;;;;4974776;28;20026;-58
2021/05/06 15:42:25;;;;;;;91.63;83.85;;;18.50;99.90;;;;;;4974793;28;20081;-58
2021/05/06 15:44:52;;;;;;;94.28;86.13;;;18.50;99.90;;;;;;4974689;28;20102;-56
2021/05/06 15:47:20;;;;;;;94.97;86.40;;;18.50;99.90;;;;;;4974579;28;20078;-55
2021/05/06 15:49:51;;;;;;;95.05;86.35;;;18.50;99.90;;;;;;4974670;28;20115;-58
2021/05/06 15:52:19;;;;;;;94.13;85.35;;;18.50;99.90;;;;;;4974846;28;20019;-58
2021/05/06 15:54:47;;;;;;;93.53;85.28;;;18.50;99.90;;;;;;4973315;28;20089;-55
2021/05/06 15:57:14;;;;;;;91.13;83.30;;;18.50;99.90;;;;;;4974456;28;20422;-56
2021/05/06 15:59:41;;;;;;;95.47;86.60;;;18.50;99.90;;;;;;4974472;28;20027;-57
2021/05/06 16:02:09;;;;;;;91.10;83.43;;;18.40;99.90;;;;;;4974533;28;20050;-58
2021/05/06 16:04:39;;;;;;;92.85;85.03;;;18.40;99.90;;;;;;4974227;28;20043;-56
2021/05/06 16:07:07;;;;;;;93.82;85.85;;;18.40;99.90;;;;;;4974295;28;20046;-56
2021/05/06 16:09:43;;;;;;;97.40;88.78;;;18.40;99.90;;;;;;4974351;28;20409;-59
2021/05/06 16:12:10;;;;;;;96.78;88.60;;;18.50;99.90;;;;;;4974344;28;20046;-55